Time;durP1;ratioP1;P1;durP2;ratioP2;P2;SDS_P1;SDS_P2;PMS_P1;PMS_P2;Temp;Humidity;BMP_temperature;BMP_pressure;BME280_temperature;BME280_humidity;BME280_pressure;Samples;Min_cycle;Max_cycle;Signal;HPM_P1;HPM_P2
2022/06/30 00:00:59;;;;;;;5.90;5.30;;;27.50;54.00;;;;;;5020960;28;20224;-44
2022/06/30 00:03:25;;;;;;;5.20;4.90;;;27.60;53.90;;;;;;5039955;28;20207;-43
2022/06/30 00:05:50;;;;;;;7.17;5.23;;;27.70;53.70;;;;;;5041890;28;20262;-44
2022/06/30 00:08:16;;;;;;;9.77;5.50;;;27.80;53.50;;;;;;5021222;28;20288;-44
2022/06/30 00:10:41;;;;;;;5.77;5.30;;;27.60;53.90;;;;;;5031920;28;20193;-44
2022/06/30 00:13:07;;;;;;;6.47;5.90;;;27.70;53.80;;;;;;5038773;28;20197;-43
2022/06/30 00:15:35;;;;;;;5.67;5.27;;;27.70;53.50;;;;;;5026633;28;20280;-44
2022/06/30 00:18:01;;;;;;;6.97;5.50;;;27.80;53.30;;;;;;5035611;28;20192;-44
2022/06/30 00:20:27;;;;;;;5.90;5.50;;;27.90;53.10;;;;;;5029026;28;20436;-45
2022/06/30 00:22:52;;;;;;;7.97;5.40;;;27.90;52.80;;;;;;5021383;28;20272;-45
2022/06/30 00:25:18;;;;;;;6.23;5.43;;;28.00;52.60;;;;;;5021286;28;20279;-44
2022/06/30 00:27:44;;;;;;;6.20;5.60;;;28.00;52.70;;;;;;5020083;28;21460;-44
2022/06/30 00:30:10;;;;;;;5.10;4.70;;;28.00;52.80;;;;;;5020200;28;20444;-44
2022/06/30 00:32:36;;;;;;;5.87;5.40;;;28.00;52.70;;;;;;5021153;28;20897;-45
2022/06/30 00:35:02;;;;;;;6.73;6.10;;;28.00;52.60;;;;;;5025736;28;20439;-45
2022/06/30 00:37:27;;;;;;;6.63;6.03;;;28.10;52.50;;;;;;5026748;28;20189;-46
2022/06/30 00:39:53;;;;;;;6.10;5.50;;;28.10;52.40;;;;;;5028927;28;20201;-44
2022/06/30 00:42:19;;;;;;;7.13;5.87;;;28.10;52.40;;;;;;5033115;28;20228;-44
2022/06/30 00:44:44;;;;;;;6.70;6.10;;;28.00;52.40;;;;;;5021809;28;20613;-44
2022/06/30 00:47:10;;;;;;;6.43;5.90;;;28.00;52.40;;;;;;5028417;28;20280;-45
2022/06/30 00:49:37;;;;;;;6.03;5.53;;;28.00;52.60;;;;;;5027512;28;20224;-45
2022/06/30 00:52:03;;;;;;;6.33;5.83;;;28.00;52.50;;;;;;5036101;28;20471;-45
2022/06/30 00:54:33;;;;;;;6.50;6.00;;;28.00;53.20;;;;;;5037801;28;20455;-44
2022/06/30 00:56:59;;;;;;;6.10;5.50;;;28.00;52.70;;;;;;5035718;28;20530;-44
2022/06/30 00:59:27;;;;;;;6.07;5.30;;;27.90;52.60;;;;;;5035281;28;20899;-45
2022/06/30 01:01:53;;;;;;;6.30;5.83;;;27.90;52.70;;;;;;5028402;28;20531;-46
2022/06/30 01:04:19;;;;;;;6.93;5.47;;;27.90;52.70;;;;;;5033781;28;21016;-45
2022/06/30 01:06:46;;;;;;;7.63;6.03;;;27.90;52.80;;;;;;5030230;28;20542;-45
2022/06/30 01:12:41;;;;;;;7.00;6.40;;;27.80;52.90;;;;;;5032357;28;20554;-44
2022/06/30 01:14:42;;;;;;;9.50;6.53;;;27.60;53.70;;;;;;5032371;28;20454;-45
2022/06/30 01:17:08;;;;;;;7.13;5.30;;;27.60;53.80;;;;;;5031648;28;20436;-44
2022/06/30 01:19:33;;;;;;;8.07;5.60;;;27.60;53.60;;;;;;5030963;28;20205;-44
2022/06/30 01:22:03;;;;;;;5.77;5.37;;;27.50;53.60;;;;;;5034001;28;20219;-44
2022/06/30 01:24:29;;;;;;;6.03;5.63;;;27.40;54.10;;;;;;5050442;28;20188;-44
2022/06/30 01:26:57;;;;;;;6.50;5.90;;;27.20;54.60;;;;;;5029728;28;20565;-45
2022/06/30 01:29:23;;;;;;;7.90;5.70;;;27.10;55.00;;;;;;5031071;28;20218;-45
2022/06/30 01:31:49;;;;;;;6.53;6.03;;;26.80;55.90;;;;;;5035628;28;20444;-44
2022/06/30 01:34:15;;;;;;;7.40;6.80;;;26.80;55.80;;;;;;5033262;28;20250;-45
2022/06/30 01:36:42;;;;;;;6.20;5.70;;;26.80;55.80;;;;;;5036707;28;21001;-45
2022/06/30 01:39:08;;;;;;;7.00;6.40;;;26.80;55.60;;;;;;5032460;28;20653;-44
2022/06/30 01:41:33;;;;;;;6.70;6.10;;;26.90;55.40;;;;;;5030843;28;20455;-44
2022/06/30 01:43:59;;;;;;;6.43;5.80;;;27.00;55.00;;;;;;5042991;28;20193;-44
2022/06/30 01:46:25;;;;;;;6.80;6.30;;;27.10;55.00;;;;;;5035074;28;20292;-44
2022/06/30 01:48:50;;;;;;;8.27;7.47;;;27.10;54.70;;;;;;5032140;28;20698;-46
2022/06/30 01:51:16;;;;;;;8.40;7.60;;;27.20;54.70;;;;;;5033073;28;20603;-44
2022/06/30 01:53:41;;;;;;;14.23;9.80;;;27.10;54.70;;;;;;5031575;28;20197;-45
2022/06/30 01:56:07;;;;;;;8.77;7.40;;;27.20;54.60;;;;;;5031647;28;20225;-45
2022/06/30 01:58:33;;;;;;;9.80;8.83;;;27.20;54.50;;;;;;5039948;28;20668;-44
2022/06/30 02:00:58;;;;;;;8.43;7.53;;;27.20;54.40;;;;;;5031718;28;20204;-44
2022/06/30 02:03:24;;;;;;;9.90;8.33;;;27.20;54.60;;;;;;5034386;28;20200;-45
2022/06/30 02:05:50;;;;;;;9.60;8.60;;;27.20;54.60;;;;;;5031698;28;20600;-45
2022/06/30 02:08:15;;;;;;;8.27;7.47;;;27.20;54.40;;;;;;5029693;28;20592;-44
2022/06/30 02:10:41;;;;;;;7.00;6.40;;;27.30;54.30;;;;;;5035899;28;20264;-45
2022/06/30 02:13:06;;;;;;;8.80;7.57;;;27.30;54.20;;;;;;5030579;28;20194;-44
2022/06/30 02:15:33;;;;;;;8.10;6.80;;;27.30;54.10;;;;;;5016377;28;20197;-45
2022/06/30 02:18:01;;;;;;;8.13;7.40;;;27.30;54.10;;;;;;5032773;28;20197;-45
2022/06/30 02:20:27;;;;;;;7.87;7.07;;;27.30;54.00;;;;;;5030247;28;20601;-44
2022/06/30 02:22:56;;;;;;;7.00;6.47;;;27.30;54.10;;;;;;5040587;28;20437;-45
2022/06/30 02:25:23;;;;;;;7.20;6.50;;;27.30;54.10;;;;;;5033829;28;20491;-44
2022/06/30 02:27:49;;;;;;;7.33;6.73;;;27.30;54.00;;;;;;5041757;28;20818;-46
2022/06/30 02:30:15;;;;;;;6.87;6.20;;;27.30;54.00;;;;;;5031370;28;20440;-45
2022/06/30 02:32:41;;;;;;;5.90;5.40;;;27.30;53.90;;;;;;5030699;28;20225;-44
2022/06/30 02:35:08;;;;;;;10.50;6.50;;;27.30;53.80;;;;;;5040234;28;20922;-44
2022/06/30 02:37:34;;;;;;;6.53;6.07;;;27.30;53.80;;;;;;5041429;28;20232;-45
2022/06/30 02:40:00;;;;;;;6.90;6.20;;;27.30;53.80;;;;;;5027115;28;20476;-44
2022/06/30 02:42:25;;;;;;;6.90;6.40;;;27.30;53.80;;;;;;5031635;28;20197;-44
2022/06/30 02:44:51;;;;;;;6.27;5.77;;;27.30;53.80;;;;;;5038060;28;20194;-47
2022/06/30 02:47:16;;;;;;;6.20;5.80;;;27.30;53.90;;;;;;5022731;28;20644;-45
2022/06/30 02:49:42;;;;;;;6.83;6.23;;;27.30;54.60;;;;;;5032642;28;20193;-44
2022/06/30 02:52:08;;;;;;;6.57;6.07;;;27.30;53.90;;;;;;5026710;28;20229;-45
2022/06/30 02:54:36;;;;;;;6.17;5.77;;;27.30;53.90;;;;;;5039867;28;20202;-44
2022/06/30 02:57:02;;;;;;;8.30;6.97;;;27.20;53.90;;;;;;5032429;28;20189;-44
2022/06/30 02:59:27;;;;;;;6.90;5.87;;;27.20;53.80;;;;;;5036567;28;20451;-44
2022/06/30 03:01:53;;;;;;;7.03;6.37;;;27.20;53.90;;;;;;5032513;28;20200;-44
2022/06/30 03:04:21;;;;;;;6.13;5.73;;;27.20;54.00;;;;;;5031155;28;20197;-45
2022/06/30 03:06:46;;;;;;;6.20;5.60;;;27.20;54.10;;;;;;5029270;28;20739;-44
2022/06/30 03:09:12;;;;;;;6.33;5.73;;;27.20;54.20;;;;;;5036565;28;20447;-44
2022/06/30 03:11:39;;;;;;;8.03;6.50;;;27.20;54.10;;;;;;5032358;28;20250;-45
2022/06/30 03:14:05;;;;;;;7.23;6.60;;;27.20;54.10;;;;;;5028866;28;20185;-44
2022/06/30 03:16:30;;;;;;;6.13;5.60;;;27.20;54.10;;;;;;5037882;28;20435;-46
2022/06/30 03:18:56;;;;;;;6.50;6.00;;;27.10;53.90;;;;;;5027640;28;20657;-43
2022/06/30 03:21:22;;;;;;;7.23;6.60;;;27.10;54.70;;;;;;5037614;28;20186;-44
2022/06/30 03:23:48;;;;;;;6.07;5.47;;;27.10;54.20;;;;;;5039569;28;20595;-44
2022/06/30 03:26:13;;;;;;;8.80;6.50;;;27.10;54.20;;;;;;5040077;28;20260;-44
2022/06/30 03:28:39;;;;;;;6.27;5.77;;;27.10;54.20;;;;;;5035194;28;20491;-44
2022/06/30 03:31:05;;;;;;;5.97;5.43;;;27.00;54.10;;;;;;5029535;28;20601;-44
2022/06/30 03:33:31;;;;;;;6.57;5.87;;;27.00;54.10;;;;;;5034585;28;20305;-46
2022/06/30 03:35:57;;;;;;;6.90;6.37;;;27.00;54.00;;;;;;5041374;28;20279;-44
2022/06/30 03:38:23;;;;;;;8.20;6.50;;;27.00;54.20;;;;;;5036114;28;20194;-44
2022/06/30 03:40:48;;;;;;;6.70;6.10;;;26.90;54.20;;;;;;5024793;28;20869;-45
2022/06/30 03:43:16;;;;;;;6.90;6.17;;;26.90;54.30;;;;;;5026620;28;20653;-45
2022/06/30 03:45:42;;;;;;;6.80;6.03;;;26.90;54.40;;;;;;5027024;28;20295;-44
2022/06/30 03:48:07;;;;;;;6.93;6.27;;;26.90;54.40;;;;;;5020864;28;20475;-45
2022/06/30 03:50:34;;;;;;;6.70;6.17;;;26.90;54.30;;;;;;5015745;28;21376;-45
2022/06/30 03:53:00;;;;;;;6.30;5.80;;;26.90;54.40;;;;;;5009459;28;20223;-48
2022/06/30 03:55:27;;;;;;;8.83;6.50;;;26.80;54.50;;;;;;5033893;28;20442;-43
2022/06/30 03:57:52;;;;;;;6.87;6.37;;;26.80;54.50;;;;;;5026642;28;20444;-46
2022/06/30 04:00:19;;;;;;;9.30;6.60;;;26.80;54.70;;;;;;5026224;28;20997;-47
2022/06/30 04:02:45;;;;;;;7.30;6.60;;;26.80;54.70;;;;;;5031443;28;20201;-47
2022/06/30 04:05:10;;;;;;;6.53;6.03;;;26.10;56.10;;;;;;5031354;28;20485;-47
2022/06/30 04:07:45;;;;;;;6.70;6.20;;;25.60;58.00;;;;;;5029403;28;20825;-46
2022/06/30 04:10:12;;;;;;;7.77;7.27;;;25.50;58.10;;;;;;5029062;28;20192;-45
2022/06/30 04:12:38;;;;;;;7.30;6.80;;;25.40;58.30;;;;;;5025348;28;20869;-45
2022/06/30 04:15:04;;;;;;;6.80;6.20;;;25.20;58.80;;;;;;5028847;28;20440;-46
2022/06/30 04:17:33;;;;;;;8.93;6.60;;;25.30;59.10;;;;;;5026646;28;20233;-43
2022/06/30 04:20:15;;;;;;;6.60;6.10;;;25.40;58.60;;;;;;5028380;28;20548;-46
2022/06/30 04:22:46;;;;;;;6.40;5.90;;;25.70;58.00;;;;;;5021278;28;20578;-48
2022/06/30 04:25:11;;;;;;;7.20;6.50;;;25.90;57.40;;;;;;5036646;28;20561;-46
2022/06/30 04:27:45;;;;;;;7.43;6.83;;;26.10;57.10;;;;;;5023528;28;20555;-48
2022/06/30 04:30:12;;;;;;;6.97;6.37;;;26.00;57.00;;;;;;5034195;28;20207;-48
2022/06/30 04:32:38;;;;;;;6.70;6.10;;;26.10;57.00;;;;;;5024176;28;20447;-47
2022/06/30 04:35:06;;;;;;;6.40;5.73;;;26.20;56.60;;;;;;5033589;28;20434;-46
2022/06/30 04:37:31;;;;;;;5.97;5.57;;;26.30;56.40;;;;;;5037062;28;20276;-44
2022/06/30 04:42:41;;;;;;;6.17;5.67;;;26.40;56.40;;;;;;5030192;28;20207;-45
2022/06/30 04:45:07;;;;;;;7.07;6.67;;;26.50;56.20;;;;;;5028622;28;20432;-44
2022/06/30 04:47:36;;;;;;;6.93;6.30;;;26.50;56.10;;;;;;5028686;28;20922;-45
2022/06/30 04:50:05;;;;;;;5.93;5.53;;;26.40;56.20;;;;;;5028971;28;20450;-44
2022/06/30 04:52:32;;;;;;;12.83;7.00;;;26.40;56.70;;;;;;5031341;28;20491;-48
2022/06/30 04:54:58;;;;;;;6.30;5.80;;;26.40;56.50;;;;;;5026531;28;20455;-46
2022/06/30 04:57:24;;;;;;;7.47;6.87;;;26.50;56.40;;;;;;5027147;28;20444;-43
2022/06/30 04:59:49;;;;;;;8.50;6.33;;;26.60;56.20;;;;;;5026080;28;20212;-45
2022/06/30 05:02:15;;;;;;;7.00;6.50;;;26.60;56.20;;;;;;5029007;28;20200;-45
2022/06/30 05:04:43;;;;;;;7.20;6.60;;;26.60;56.10;;;;;;5030665;28;20648;-45
2022/06/30 05:07:09;;;;;;;6.90;6.33;;;26.70;55.90;;;;;;5036924;28;20228;-49
2022/06/30 05:09:34;;;;;;;8.37;7.67;;;26.60;57.00;;;;;;5024733;28;20466;-49
2022/06/30 05:12:00;;;;;;;10.60;7.40;;;26.60;56.50;;;;;;5034541;28;20627;-46
2022/06/30 05:14:25;;;;;;;6.90;6.40;;;26.50;56.80;;;;;;5034661;28;20193;-44
2022/06/30 05:16:51;;;;;;;7.10;6.50;;;26.20;57.60;;;;;;5028630;28;20881;-45
2022/06/30 05:19:16;;;;;;;7.77;7.17;;;25.90;58.40;;;;;;5027306;28;20185;-46
2022/06/30 05:21:42;;;;;;;8.10;7.40;;;25.90;58.90;;;;;;5027746;28;20193;-47
2022/06/30 05:26:52;;;;;;;8.00;7.30;;;25.60;59.90;;;;;;5028860;28;20224;-43
2022/06/30 05:29:17;;;;;;;7.73;7.10;;;25.30;61.20;;;;;;5045061;28;20447;-48
2022/06/30 05:31:43;;;;;;;7.80;7.10;;;25.30;61.70;;;;;;5028541;28;20268;-49
2022/06/30 05:34:09;;;;;;;7.73;6.97;;;25.50;61.00;;;;;;5037357;28;20240;-45
2022/06/30 05:36:34;;;;;;;7.47;6.80;;;25.40;61.00;;;;;;5028073;28;20208;-45
2022/06/30 05:39:00;;;;;;;7.80;6.93;;;25.40;61.20;;;;;;5036778;28;20240;-49
2022/06/30 05:41:25;;;;;;;8.67;7.87;;;25.40;61.40;;;;;;5033221;28;20578;-44
2022/06/30 05:43:52;;;;;;;7.73;7.13;;;25.50;60.90;;;;;;5043506;28;20188;-45
2022/06/30 05:46:18;;;;;;;7.40;6.80;;;25.60;61.00;;;;;;5030367;28;20331;-49
2022/06/30 05:48:43;;;;;;;7.53;6.93;;;25.60;60.90;;;;;;5018384;28;20454;-44
2022/06/30 05:51:09;;;;;;;8.07;7.37;;;25.40;61.70;;;;;;5033985;28;20484;-45
2022/06/30 05:53:35;;;;;;;7.63;6.93;;;25.20;62.90;;;;;;5039768;28;20189;-46
2022/06/30 05:56:01;;;;;;;7.47;6.73;;;25.10;62.70;;;;;;5035776;28;20645;-46
2022/06/30 05:58:27;;;;;;;7.60;7.00;;;25.10;62.40;;;;;;5037789;28;20438;-45
2022/06/30 06:00:52;;;;;;;9.63;6.30;;;25.40;61.60;;;;;;5032938;28;20611;-45
2022/06/30 06:03:18;;;;;;;8.00;6.37;;;25.80;60.10;;;;;;5030812;28;20627;-46
2022/06/30 06:05:44;;;;;;;6.70;6.20;;;26.10;59.40;;;;;;5033676;28;20680;-47
2022/06/30 06:08:10;;;;;;;8.83;6.63;;;26.10;59.20;;;;;;5034909;28;20205;-44
2022/06/30 06:10:36;;;;;;;6.40;5.90;;;26.20;58.90;;;;;;5037808;28;20185;-45
2022/06/30 06:13:03;;;;;;;6.97;6.37;;;26.40;58.50;;;;;;5033206;28;20450;-46
2022/06/30 06:15:28;;;;;;;6.37;5.63;;;26.60;57.80;;;;;;5034142;28;20217;-44
2022/06/30 06:17:54;;;;;;;7.80;6.60;;;26.80;57.50;;;;;;5043251;28;20464;-48
2022/06/30 06:20:20;;;;;;;26.63;7.60;;;26.70;57.60;;;;;;5037752;28;20196;-45
2022/06/30 06:22:46;;;;;;;14.87;8.30;;;26.60;58.20;;;;;;5039488;28;20234;-46
2022/06/30 06:25:13;;;;;;;12.27;7.30;;;26.60;58.30;;;;;;5030174;28;20268;-45
2022/06/30 06:27:39;;;;;;;21.60;7.73;;;26.80;57.70;;;;;;5032239;28;20292;-44
2022/06/30 06:30:07;;;;;;;25.40;8.60;;;27.10;57.20;;;;;;5031795;28;20490;-45
2022/06/30 06:32:33;;;;;;;7.77;7.07;;;27.20;57.00;;;;;;5035090;28;20497;-45
2022/06/30 06:34:59;;;;;;;6.70;6.10;;;27.30;57.00;;;;;;5033115;28;20665;-44
2022/06/30 06:37:25;;;;;;;6.97;6.43;;;27.30;56.50;;;;;;5043149;28;20197;-46
2022/06/30 06:39:50;;;;;;;6.70;6.10;;;27.30;56.80;;;;;;5029757;28;20181;-44
2022/06/30 06:42:16;;;;;;;8.13;5.70;;;27.50;56.70;;;;;;5038369;28;20216;-46
2022/06/30 06:44:42;;;;;;;8.47;7.67;;;27.60;56.40;;;;;;5012299;28;20205;-47
2022/06/30 06:47:08;;;;;;;6.63;6.03;;;27.80;56.00;;;;;;5026430;28;20228;-46
2022/06/30 06:49:34;;;;;;;6.73;6.07;;;27.90;55.70;;;;;;5022226;28;20207;-49
2022/06/30 06:52:00;;;;;;;7.73;6.33;;;27.90;55.50;;;;;;5027109;28;20487;-49
2022/06/30 06:54:25;;;;;;;6.87;6.17;;;28.00;55.20;;;;;;5024176;28;20233;-49
2022/06/30 06:56:51;;;;;;;5.90;5.40;;;28.10;55.40;;;;;;5029669;28;20197;-45
2022/06/30 06:59:16;;;;;;;6.53;5.93;;;28.10;55.40;;;;;;5035210;28;20200;-46
2022/06/30 07:01:43;;;;;;;6.13;5.63;;;28.10;55.10;;;;;;5032591;28;20216;-48
2022/06/30 07:04:09;;;;;;;7.10;6.43;;;28.20;55.20;;;;;;5032680;28;20272;-49
2022/06/30 07:06:34;;;;;;;6.50;5.80;;;28.40;54.90;;;;;;5019673;28;20582;-49
2022/06/30 07:09:01;;;;;;;7.20;6.60;;;28.50;54.70;;;;;;5027485;28;20240;-49
2022/06/30 07:11:27;;;;;;;10.63;7.10;;;28.60;54.50;;;;;;5032348;28;20193;-50
2022/06/30 07:13:52;;;;;;;8.23;6.77;;;28.80;54.10;;;;;;5024826;28;20468;-44
2022/06/30 07:16:18;;;;;;;6.53;5.90;;;28.90;54.10;;;;;;5030215;28;20209;-46
2022/06/30 07:18:44;;;;;;;6.60;6.00;;;28.60;54.20;;;;;;5035075;28;20298;-47
2022/06/30 07:21:09;;;;;;;7.13;5.30;;;28.60;53.90;;;;;;5030768;28;20239;-49
2022/06/30 07:23:35;;;;;;;6.83;6.20;;;28.60;54.00;;;;;;5028050;28;20212;-49
2022/06/30 07:26:01;;;;;;;6.20;5.80;;;28.70;54.00;;;;;;5028167;28;20308;-49
2022/06/30 07:28:27;;;;;;;6.67;6.13;;;28.90;53.60;;;;;;5028201;28;20637;-49
2022/06/30 07:30:53;;;;;;;7.67;6.97;;;28.80;53.20;;;;;;5029079;28;20443;-49
2022/06/30 07:33:19;;;;;;;5.60;5.20;;;28.90;52.80;;;;;;5025538;28;20193;-49
2022/06/30 07:35:46;;;;;;;9.77;5.20;;;29.20;52.60;;;;;;5030828;28;20242;-45
2022/06/30 07:38:11;;;;;;;6.17;5.67;;;29.50;52.30;;;;;;5028327;28;20341;-45
2022/06/30 07:40:37;;;;;;;6.27;5.70;;;29.60;51.60;;;;;;5032451;28;20996;-45
2022/06/30 07:43:03;;;;;;;6.00;5.50;;;29.80;51.00;;;;;;5026506;28;20217;-44
2022/06/30 07:45:29;;;;;;;9.77;6.40;;;30.00;50.40;;;;;;5027974;28;20251;-46
2022/06/30 07:47:54;;;;;;;4.90;4.50;;;30.20;49.90;;;;;;5030612;28;20689;-45
2022/06/30 07:50:21;;;;;;;6.10;4.60;;;30.30;48.00;;;;;;5009849;28;20205;-46
2022/06/30 07:52:47;;;;;;;4.83;4.27;;;30.10;47.30;;;;;;5042208;28;20205;-45
2022/06/30 07:55:14;;;;;;;5.03;4.63;;;30.30;47.30;;;;;;5014226;28;20767;-46
2022/06/30 07:57:42;;;;;;;5.33;4.83;;;30.40;46.60;;;;;;5024625;28;20193;-46
2022/06/30 08:00:10;;;;;;;7.57;4.30;;;30.40;46.40;;;;;;5032321;28;20509;-45
2022/06/30 08:02:36;;;;;;;4.33;3.93;;;30.50;46.80;;;;;;5029147;28;20958;-47
2022/06/30 08:05:02;;;;;;;4.40;4.10;;;30.80;45.80;;;;;;5028686;28;20444;-46
2022/06/30 08:07:28;;;;;;;5.20;4.80;;;31.10;45.60;;;;;;5025130;28;20673;-46
2022/06/30 08:09:53;;;;;;;4.50;4.20;;;31.20;45.30;;;;;;5027295;28;20447;-46
2022/06/30 08:12:19;;;;;;;4.87;4.30;;;31.40;44.90;;;;;;5027726;28;20206;-46
2022/06/30 08:14:46;;;;;;;4.87;4.40;;;31.50;44.90;;;;;;5030246;28;20213;-47
2022/06/30 08:17:12;;;;;;;5.07;4.60;;;31.70;44.80;;;;;;5032007;28;20522;-46
2022/06/30 08:19:37;;;;;;;6.20;4.80;;;31.90;45.00;;;;;;5029333;28;20447;-47
2022/06/30 08:22:03;;;;;;;6.07;4.40;;;31.90;44.20;;;;;;5025045;28;21681;-46
2022/06/30 08:24:29;;;;;;;4.97;4.60;;;31.70;44.20;;;;;;5030106;28;20281;-46
2022/06/30 08:26:55;;;;;;;6.60;4.80;;;31.60;43.80;;;;;;5033904;28;20680;-46
2022/06/30 08:29:20;;;;;;;6.43;5.80;;;31.80;43.70;;;;;;5027738;28;20280;-46
2022/06/30 08:31:46;;;;;;;5.60;5.17;;;31.80;43.20;;;;;;5028063;28;20242;-47
2022/06/30 08:34:12;;;;;;;6.70;5.07;;;31.90;43.70;;;;;;5030239;28;20189;-46
2022/06/30 08:36:37;;;;;;;6.70;5.40;;;32.30;43.00;;;;;;5029720;28;20197;-45
2022/06/30 08:39:03;;;;;;;5.07;4.67;;;32.50;43.50;;;;;;5026750;28;20197;-46
2022/06/30 08:44:18;;;;;;;6.20;4.47;;;32.70;43.00;;;;;;5022650;28;20540;-49
2022/06/30 08:46:45;;;;;;;5.23;4.73;;;32.70;41.30;;;;;;5028351;28;20484;-46
2022/06/30 08:49:11;;;;;;;4.83;4.33;;;33.00;41.60;;;;;;5028500;28;20478;-46
2022/06/30 08:51:38;;;;;;;4.80;4.40;;;33.20;40.20;;;;;;5028775;28;20983;-48
2022/06/30 08:54:05;;;;;;;5.40;3.80;;;33.30;39.50;;;;;;5029766;28;20276;-50
2022/06/30 08:56:34;;;;;;;4.93;3.90;;;33.30;39.20;;;;;;5037769;28;20432;-47
2022/06/30 08:59:02;;;;;;;5.60;5.00;;;33.40;39.00;;;;;;5029288;28;20995;-47
2022/06/30 09:01:28;;;;;;;4.70;4.40;;;33.40;38.70;;;;;;5028153;28;20486;-46
2022/06/30 09:03:54;;;;;;;4.70;3.50;;;33.20;39.40;;;;;;5029105;28;20443;-47
2022/06/30 09:06:20;;;;;;;9.43;4.40;;;33.50;38.60;;;;;;5027011;28;20483;-45
2022/06/30 09:08:46;;;;;;;5.07;3.83;;;33.60;39.00;;;;;;5028684;28;20440;-45
2022/06/30 09:11:11;;;;;;;5.07;4.10;;;33.70;38.10;;;;;;5025422;28;20189;-46
2022/06/30 09:13:51;;;;;;;5.23;3.73;;;33.80;39.30;;;;;;5030712;28;20197;-46
2022/06/30 09:16:19;;;;;;;4.47;3.87;;;34.10;38.70;;;;;;5029710;28;20604;-47
2022/06/30 09:18:45;;;;;;;6.70;4.60;;;34.30;38.90;;;;;;5027801;28;20452;-49
2022/06/30 09:21:19;;;;;;;4.23;3.77;;;34.40;38.80;;;;;;5023673;28;20539;-47
2022/06/30 09:23:47;;;;;;;4.53;4.23;;;34.60;37.20;;;;;;5025671;28;20288;-47
2022/06/30 09:26:21;;;;;;;5.20;4.00;;;34.70;35.20;;;;;;5031578;28;20552;-49
2022/06/30 09:28:55;;;;;;;5.57;3.97;;;34.90;35.10;;;;;;5043350;28;20459;-46
2022/06/30 09:31:34;;;;;;;6.00;4.10;;;34.80;35.60;;;;;;5038733;28;20518;-49
2022/06/30 09:34:26;;;;;;;4.93;4.53;;;34.00;37.40;;;;;;5023512;28;20489;-45
2022/06/30 09:36:52;;;;;;;5.33;4.47;;;34.40;38.30;;;;;;5032159;28;20452;-46
2022/06/30 09:39:20;;;;;;;4.73;4.43;;;34.50;37.20;;;;;;5034749;28;20449;-48
2022/06/30 09:41:48;;;;;;;4.17;3.87;;;34.70;36.30;;;;;;5028869;28;20510;-46
2022/06/30 09:44:16;;;;;;;4.23;3.93;;;34.80;36.10;;;;;;5032960;28;20531;-45
2022/06/30 09:46:58;;;;;;;4.97;4.57;;;34.80;35.60;;;;;;5031984;28;20529;-47
2022/06/30 09:49:44;;;;;;;4.37;4.00;;;34.80;35.50;;;;;;5027209;28;20523;-46
2022/06/30 09:52:20;;;;;;;5.07;4.67;;;34.60;35.50;;;;;;5028675;28;20482;-46
2022/06/30 09:55:06;;;;;;;7.00;4.13;;;34.50;35.10;;;;;;5031625;28;20455;-49
2022/06/30 09:57:37;;;;;;;4.80;4.07;;;34.10;36.60;;;;;;5046801;28;20459;-45
2022/06/30 10:00:06;;;;;;;3.93;3.73;;;34.30;36.10;;;;;;5031946;28;20444;-45
2022/06/30 10:02:47;;;;;;;6.43;4.03;;;34.30;36.00;;;;;;5038998;28;20466;-45
2022/06/30 10:05:14;;;;;;;4.27;3.80;;;34.40;35.60;;;;;;5025168;28;20886;-50
2022/06/30 10:07:40;;;;;;;4.80;4.40;;;34.90;34.70;;;;;;5032550;28;20444;-46
2022/06/30 10:10:12;;;;;;;3.83;3.33;;;35.10;33.40;;;;;;5032188;28;20424;-49
2022/06/30 10:12:40;;;;;;;5.20;3.97;;;35.40;33.30;;;;;;5029972;28;20816;-46
2022/06/30 10:15:07;;;;;;;4.10;3.80;;;35.70;33.40;;;;;;5038084;28;20489;-46
2022/06/30 10:17:36;;;;;;;5.23;4.33;;;35.90;34.10;;;;;;5040439;28;21013;-45
2022/06/30 10:20:03;;;;;;;6.97;4.13;;;36.00;33.00;;;;;;5035800;28;20448;-47
2022/06/30 10:22:29;;;;;;;7.80;3.83;;;36.10;32.20;;;;;;5029466;28;20444;-45
2022/06/30 10:24:57;;;;;;;3.93;3.63;;;36.20;32.60;;;;;;5025345;28;20439;-45
2022/06/30 10:27:25;;;;;;;4.40;4.10;;;35.90;32.90;;;;;;5033513;28;20527;-48
2022/06/30 10:30:09;;;;;;;6.80;4.27;;;35.90;33.00;;;;;;5031794;28;20444;-45
2022/06/30 10:32:40;;;;;;;5.77;4.23;;;35.60;33.20;;;;;;5045635;28;20447;-46
2022/06/30 10:35:20;;;;;;;4.27;3.87;;;35.50;33.00;;;;;;5039490;28;20470;-45
2022/06/30 10:37:54;;;;;;;4.00;3.70;;;35.90;32.70;;;;;;5029077;28;20460;-46
2022/06/30 10:40:56;;;;;;;4.43;4.07;;;36.20;33.60;;;;;;5031184;28;20844;-48
2022/06/30 10:43:21;;;;;;;4.17;3.87;;;36.60;32.70;;;;;;5014122;28;20828;-45
2022/06/30 10:45:55;;;;;;;4.30;4.00;;;36.80;31.00;;;;;;5033079;28;20488;-46
2022/06/30 10:48:21;;;;;;;4.60;4.30;;;37.00;30.40;;;;;;5031735;28;20220;-45
2022/06/30 10:50:47;;;;;;;4.77;4.00;;;37.00;30.40;;;;;;5033839;28;20484;-45
2022/06/30 10:53:36;;;;;;;5.63;4.47;;;37.10;30.70;;;;;;5031991;28;20193;-46
2022/06/30 10:56:02;;;;;;;6.50;4.03;;;37.20;30.90;;;;;;5028554;28;20714;-45
2022/06/30 10:58:28;;;;;;;4.87;4.20;;;37.30;30.60;;;;;;5029414;28;20435;-45
2022/06/30 11:01:03;;;;;;;4.20;3.90;;;36.90;30.80;;;;;;5029828;28;20432;-47
2022/06/30 11:03:34;;;;;;;4.53;4.17;;;36.30;31.40;;;;;;5028662;28;20189;-45
2022/06/30 11:06:06;;;;;;;4.43;4.13;;;36.60;31.70;;;;;;5031910;28;20490;-46
2022/06/30 11:11:24;;;;;;;4.57;3.90;;;36.50;31.80;;;;;;5020509;28;20451;-47
2022/06/30 11:14:07;;;;;;;8.13;4.47;;;37.00;31.60;;;;;;5025813;28;20811;-45
2022/06/30 11:16:35;;;;;;;4.90;4.50;;;37.30;30.00;;;;;;5029555;28;20443;-47
2022/06/30 11:19:04;;;;;;;4.40;4.10;;;37.50;30.30;;;;;;5030765;28;20423;-46
2022/06/30 11:21:31;;;;;;;8.00;4.63;;;37.70;30.90;;;;;;5030558;28;20466;-45
2022/06/30 11:24:00;;;;;;;7.03;4.43;;;37.90;30.90;;;;;;5026074;28;20467;-49
2022/06/30 11:29:17;;;;;;;4.23;3.83;;;38.30;31.10;;;;;;5038277;28;21005;-46
2022/06/30 11:31:44;;;;;;;6.13;4.50;;;38.30;29.80;;;;;;5039472;28;20440;-49
2022/06/30 11:34:13;;;;;;;5.30;4.30;;;38.50;29.20;;;;;;5030162;28;20451;-48
2022/06/30 11:36:40;;;;;;;4.60;4.23;;;38.40;28.90;;;;;;5038287;28;20478;-47
2022/06/30 11:39:23;;;;;;;4.77;4.37;;;38.40;28.70;;;;;;5035384;28;20556;-45
2022/06/30 11:41:56;;;;;;;6.63;4.00;;;38.60;29.00;;;;;;5032681;28;20455;-48
2022/06/30 11:44:29;;;;;;;5.13;4.17;;;38.70;28.90;;;;;;5038402;28;20956;-49
2022/06/30 11:47:08;;;;;;;5.40;4.47;;;39.00;28.80;;;;;;5025562;28;21301;-50
2022/06/30 11:49:43;;;;;;;4.70;4.30;;;39.30;28.50;;;;;;5036096;28;20442;-46
2022/06/30 11:52:23;;;;;;;4.30;3.90;;;39.60;29.50;;;;;;5025566;28;20470;-46
2022/06/30 11:54:52;;;;;;;5.23;3.93;;;39.60;28.60;;;;;;5036774;28;20499;-49
2022/06/30 11:57:29;;;;;;;4.83;4.43;;;39.70;28.60;;;;;;5033875;28;20473;-45
2022/06/30 12:00:02;;;;;;;4.70;4.30;;;39.70;28.10;;;;;;5029480;28;20457;-48
2022/06/30 12:02:28;;;;;;;5.33;4.90;;;39.80;27.60;;;;;;5039750;28;20946;-49
2022/06/30 12:04:56;;;;;;;5.73;5.20;;;40.00;27.40;;;;;;5035416;28;20440;-46
2022/06/30 12:07:22;;;;;;;4.40;4.10;;;40.10;27.10;;;;;;5030059;28;20482;-47
2022/06/30 12:09:49;;;;;;;4.80;4.50;;;40.10;27.70;;;;;;5030598;28;20500;-48
2022/06/30 12:12:19;;;;;;;5.10;4.80;;;40.00;27.40;;;;;;5026299;28;20617;-50
2022/06/30 12:14:45;;;;;;;4.97;4.60;;;39.90;27.70;;;;;;5028875;28;20455;-50
2022/06/30 12:17:12;;;;;;;5.00;4.60;;;39.90;27.60;;;;;;5023748;28;20443;-49
2022/06/30 12:19:41;;;;;;;4.43;4.03;;;39.80;27.50;;;;;;5035927;28;20821;-47
2022/06/30 12:22:08;;;;;;;8.90;4.97;;;39.90;27.70;;;;;;5032504;28;20477;-48
2022/06/30 12:24:36;;;;;;;4.97;4.57;;;40.00;27.80;;;;;;5035001;28;20529;-48
2022/06/30 12:27:01;;;;;;;8.20;4.80;;;40.30;28.10;;;;;;5021510;28;20490;-47
2022/06/30 12:29:29;;;;;;;8.13;4.70;;;40.30;27.50;;;;;;5028659;28;20454;-52
2022/06/30 12:32:06;;;;;;;5.50;5.00;;;40.20;26.80;;;;;;5026721;28;20184;-48
2022/06/30 12:34:47;;;;;;;6.27;5.10;;;40.20;27.20;;;;;;5036460;28;20793;-50
2022/06/30 12:37:12;;;;;;;4.87;4.47;;;40.30;26.90;;;;;;5030493;28;21018;-49
2022/06/30 12:39:43;;;;;;;5.30;4.90;;;40.50;27.00;;;;;;5029754;28;20446;-49
2022/06/30 12:42:09;;;;;;;5.13;4.70;;;40.40;26.20;;;;;;5023444;28;20203;-52
2022/06/30 12:44:37;;;;;;;4.87;4.33;;;40.20;27.30;;;;;;5045334;28;20439;-51
2022/06/30 12:47:08;;;;;;;5.47;5.07;;;40.30;27.30;;;;;;5034131;28;20228;-49
2022/06/30 12:49:34;;;;;;;5.17;4.33;;;40.50;26.70;;;;;;5036201;28;20444;-52
2022/06/30 12:52:01;;;;;;;7.27;5.03;;;40.70;26.70;;;;;;5031054;28;20974;-47
2022/06/30 12:54:27;;;;;;;4.70;4.23;;;40.70;26.20;;;;;;5023774;28;20497;-47
2022/06/30 12:57:05;;;;;;;5.50;5.00;;;40.50;26.70;;;;;;5030921;28;20443;-50
2022/06/30 12:59:31;;;;;;;5.53;4.90;;;40.60;26.70;;;;;;5029178;28;20513;-47
2022/06/30 13:02:00;;;;;;;6.80;5.10;;;40.80;27.40;;;;;;5031255;28;20442;-47
2022/06/30 13:04:28;;;;;;;5.43;4.57;;;41.00;26.80;;;;;;5034082;28;20219;-50